Time;durP1;ratioP1;P1;durP2;ratioP2;P2;SDS_P1;SDS_P2;PMS_P1;PMS_P2;Temp;Humidity;BMP_temperature;BMP_pressure;BME280_temperature;BME280_humidity;BME280_pressure;Samples;Min_cycle;Max_cycle;Signal;HPM_P1;HPM_P2
2022/08/27 00:02:16;;;;;;;;;;;;;;;19.32;67.30;101137.69;5062103;28;19923;-77
2022/08/27 00:04:42;;;;;;;;;;;;;;;19.22;67.64;101133.78;5065651;28;19928;-77
2022/08/27 00:07:07;;;;;;;;;;;;;;;19.27;67.65;101139.66;5066238;28;19984;-78
2022/08/27 00:09:33;;;;;;;;;;;;;;;19.26;67.67;101143.22;5060659;28;19943;-77
2022/08/27 00:11:58;;;;;;;;;;;;;;;19.22;67.93;101131.97;5061867;28;19924;-77
2022/08/27 00:14:25;;;;;;;;;;;;;;;19.29;67.41;101131.69;5063689;28;19965;-77
2022/08/27 00:16:50;;;;;;;;;;;;;;;19.26;67.89;101133.53;5066779;28;20022;-77
2022/08/27 00:19:16;;;;;;;;;;;;;;;19.17;68.17;101134.00;5066155;28;20369;-77
2022/08/27 00:21:41;;;;;;;;;;;;;;;19.25;67.83;101136.28;5062248;28;19979;-77
2022/08/27 00:24:06;;;;;;;;;;;;;;;19.23;68.27;101132.84;5061910;28;19928;-77
2022/08/27 00:26:31;;;;;;;;;;;;;;;19.21;68.35;101137.34;5064633;28;19947;-77
2022/08/27 00:28:57;;;;;;;;;;;;;;;19.21;68.08;101132.06;5062469;28;19951;-77
2022/08/27 00:31:23;;;;;;;;;;;;;;;19.21;68.16;101125.03;5061720;28;20308;-77
2022/08/27 00:33:48;;;;;;;;;;;;;;;19.22;68.02;101134.63;5060549;28;19951;-77
2022/08/27 00:36:14;;;;;;;;;;;;;;;19.20;68.05;101125.94;5068187;28;19935;-77
2022/08/27 00:38:40;;;;;;;;;;;;;;;19.23;67.99;101130.22;5068004;28;19916;-77
2022/08/27 00:41:07;;;;;;;;;;;;;;;19.22;67.62;101124.09;5064332;28;19924;-77
2022/08/27 00:43:53;;;;;;;;;;;;;;;19.22;67.70;101126.72;5070693;28;19982;-77
2022/08/27 00:46:21;;;;;;;;;;;;;;;19.16;67.99;101128.84;5070488;28;19924;-77
2022/08/27 00:48:48;;;;;;;;;;;;;;;19.19;68.01;101133.94;5070140;28;21341;-77
2022/08/27 00:51:13;;;;;;;;;;;;;;;19.17;67.94;101127.88;5070340;28;19928;-77
2022/08/27 00:53:38;;;;;;;;;;;;;;;19.22;67.89;101129.34;5068359;28;19929;-77
2022/08/27 00:56:07;;;;;;;;;;;;;;;19.21;68.46;101129.44;5064023;28;20507;-77
2022/08/27 00:58:40;;;;;;;;;;;;;;;19.15;68.66;101127.13;5069004;28;19971;-77
2022/08/27 01:01:07;;;;;;;;;;;;;;;19.13;68.91;101127.19;5063719;28;19924;-77
2022/08/27 01:03:33;;;;;;;;;;;;;;;19.09;69.31;101128.28;5066592;28;20540;-77
2022/08/27 01:06:00;;;;;;;;;;;;;;;19.09;69.22;101138.81;5063787;28;19925;-77
2022/08/27 01:08:28;;;;;;;;;;;;;;;19.05;69.33;101139.03;5065460;28;19921;-77
2022/08/27 01:10:55;;;;;;;;;;;;;;;19.01;69.86;101133.09;5067020;28;19920;-77
2022/08/27 01:13:23;;;;;;;;;;;;;;;19.11;68.94;101134.31;5067234;28;19928;-77
2022/08/27 01:15:48;;;;;;;;;;;;;;;19.05;69.29;101131.13;5060464;28;19932;-77
2022/08/27 01:18:14;;;;;;;;;;;;;;;19.08;69.71;101130.97;5068939;28;19920;-77
2022/08/27 01:20:59;;;;;;;;;;;;;;;19.00;70.13;101130.53;5069395;28;19927;-77
2022/08/27 01:23:37;;;;;;;;;;;;;;;18.95;70.16;101124.66;5066494;28;20377;-77
2022/08/27 01:26:04;;;;;;;;;;;;;;;18.93;70.05;101121.22;5062564;28;20458;-77
2022/08/27 01:28:30;;;;;;;;;;;;;;;19.00;69.33;101117.34;5067517;28;20015;-77
2022/08/27 01:30:55;;;;;;;;;;;;;;;19.02;69.10;101115.50;5064562;28;20015;-77
2022/08/27 01:33:21;;;;;;;;;;;;;;;19.03;69.04;101112.78;5064537;28;19932;-77
2022/08/27 01:35:47;;;;;;;;;;;;;;;18.89;69.70;101115.28;5066462;28;19971;-77
2022/08/27 01:38:14;;;;;;;;;;;;;;;18.99;69.27;101105.97;5065149;28;19995;-77
2022/08/27 01:40:40;;;;;;;;;;;;;;;18.97;69.27;101113.09;5065502;28;19931;-77
2022/08/27 01:43:06;;;;;;;;;;;;;;;19.02;69.02;101103.19;5065937;28;19920;-77
2022/08/27 01:45:32;;;;;;;;;;;;;;;18.86;69.71;101106.69;5063288;28;19935;-77
2022/08/27 01:47:58;;;;;;;;;;;;;;;18.90;69.39;101111.69;5064792;28;19924;-77
2022/08/27 01:50:34;;;;;;;;;;;;;;;18.95;69.30;101100.94;5066536;28;19924;-77
2022/08/27 01:53:20;;;;;;;;;;;;;;;18.92;69.62;101109.00;5064384;28;20686;-77
2022/08/27 01:55:45;;;;;;;;;;;;;;;19.02;69.17;101104.97;5065371;28;19931;-77
2022/08/27 01:58:11;;;;;;;;;;;;;;;18.84;70.01;101104.09;5065871;28;19929;-77
2022/08/27 02:00:38;;;;;;;;;;;;;;;18.80;70.04;101109.59;5065811;28;19924;-77
2022/08/27 02:03:04;;;;;;;;;;;;;;;18.78;70.03;101096.50;5066701;28;20081;-77
2022/08/27 02:05:30;;;;;;;;;;;;;;;18.85;69.96;101095.28;5067502;28;20424;-77
2022/08/27 02:07:55;;;;;;;;;;;;;;;18.79;70.05;101100.00;5066366;28;19978;-77
2022/08/27 02:10:23;;;;;;;;;;;;;;;18.80;69.78;101096.44;5063478;28;19938;-77
2022/08/27 02:12:48;;;;;;;;;;;;;;;18.77;70.28;101093.97;5063251;28;19932;-77
2022/08/27 02:15:14;;;;;;;;;;;;;;;18.86;70.08;101094.38;5069242;28;20426;-77
2022/08/27 02:17:39;;;;;;;;;;;;;;;18.74;70.32;101102.00;5070994;28;19959;-77
2022/08/27 02:20:07;;;;;;;;;;;;;;;18.74;69.92;101100.25;5065910;28;19924;-77
2022/08/27 02:22:32;;;;;;;;;;;;;;;18.79;69.88;101097.38;5061803;28;19964;-77
2022/08/27 02:24:58;;;;;;;;;;;;;;;18.72;70.22;101094.19;5064856;28;19964;-77
2022/08/27 02:27:23;;;;;;;;;;;;;;;18.77;69.92;101084.28;5067024;28;20562;-77
2022/08/27 02:29:50;;;;;;;;;;;;;;;18.72;70.19;101088.91;5065114;28;19932;-77
2022/08/27 02:32:15;;;;;;;;;;;;;;;18.66;70.08;101092.72;5067284;28;20251;-77
2022/08/27 02:34:40;;;;;;;;;;;;;;;18.56;70.25;101094.09;5065190;28;19960;-77
2022/08/27 02:37:06;;;;;;;;;;;;;;;18.60;70.41;101087.75;5062520;28;19994;-77
2022/08/27 02:39:32;;;;;;;;;;;;;;;18.63;70.18;101086.72;5057765;28;19924;-77
2022/08/27 02:41:57;;;;;;;;;;;;;;;18.66;69.77;101090.06;5065027;28;19927;-77
2022/08/27 02:44:22;;;;;;;;;;;;;;;18.63;70.00;101095.50;5063770;28;19956;-77
2022/08/27 02:46:48;;;;;;;;;;;;;;;18.72;69.80;101085.47;5064809;28;19924;-77
2022/08/27 02:49:14;;;;;;;;;;;;;;;18.75;69.66;101090.56;5062308;28;19920;-77
2022/08/27 02:51:39;;;;;;;;;;;;;;;18.75;69.59;101093.19;5065856;28;19924;-77
2022/08/27 02:54:04;;;;;;;;;;;;;;;18.69;69.35;101089.06;5068823;28;20312;-77
2022/08/27 02:56:30;;;;;;;;;;;;;;;18.56;69.89;101085.34;5068284;28;20381;-77
2022/08/27 02:58:55;;;;;;;;;;;;;;;18.58;69.49;101092.25;5064470;28;19924;-77
2022/08/27 03:01:20;;;;;;;;;;;;;;;18.62;69.53;101087.69;5064620;28;19959;-77
2022/08/27 03:03:46;;;;;;;;;;;;;;;18.71;68.90;101092.50;5065161;28;20601;-77
2022/08/27 03:06:11;;;;;;;;;;;;;;;18.60;69.58;101090.38;5067468;28;19920;-76
2022/08/27 03:08:37;;;;;;;;;;;;;;;18.67;69.14;101086.53;5065028;28;20403;-77
2022/08/27 03:11:02;;;;;;;;;;;;;;;18.64;69.14;101089.31;5064385;28;19928;-77
2022/08/27 03:13:27;;;;;;;;;;;;;;;18.66;69.52;101084.81;5066032;28;20393;-77
2022/08/27 03:15:53;;;;;;;;;;;;;;;18.64;69.58;101085.81;5067679;28;19925;-77
2022/08/27 03:18:22;;;;;;;;;;;;;;;18.58;69.49;101086.13;5066540;28;19920;-77
2022/08/27 03:20:49;;;;;;;;;;;;;;;18.66;69.19;101086.59;5065826;28;20586;-78
2022/08/27 03:23:15;;;;;;;;;;;;;;;18.68;69.31;101082.97;5064331;28;20345;-77
2022/08/27 03:25:45;;;;;;;;;;;;;;;18.60;69.53;101087.75;5065528;28;20442;-77
2022/08/27 03:28:13;;;;;;;;;;;;;;;18.72;68.80;101082.81;5062104;28;19939;-77
2022/08/27 03:30:38;;;;;;;;;;;;;;;18.77;68.63;101084.28;5064062;28;19925;-77
2022/08/27 03:33:04;;;;;;;;;;;;;;;18.74;68.41;101083.59;5063066;28;19936;-78
2022/08/27 03:35:29;;;;;;;;;;;;;;;18.73;68.41;101084.50;5061862;28;19929;-80
2022/08/27 03:37:54;;;;;;;;;;;;;;;18.62;68.38;101088.53;5062790;28;20031;-81
2022/08/27 03:40:20;;;;;;;;;;;;;;;18.64;68.26;101084.03;5060532;28;19971;-80
2022/08/27 03:42:45;;;;;;;;;;;;;;;18.63;68.22;101087.59;5065202;28;19959;-80
2022/08/27 03:45:10;;;;;;;;;;;;;;;18.50;68.22;101088.28;5064902;28;19940;-80
2022/08/27 03:47:36;;;;;;;;;;;;;;;18.56;68.03;101083.56;5068306;28;19966;-80
2022/08/27 03:50:03;;;;;;;;;;;;;;;18.51;68.51;101082.09;5064413;28;19931;-80
2022/08/27 03:52:28;;;;;;;;;;;;;;;18.58;68.31;101089.59;5062228;28;19946;-80
2022/08/27 03:54:54;;;;;;;;;;;;;;;18.60;68.26;101089.56;5064140;28;19928;-80
2022/08/27 03:57:19;;;;;;;;;;;;;;;18.64;68.51;101094.56;5064584;28;19924;-80
2022/08/27 03:59:44;;;;;;;;;;;;;;;18.62;68.04;101092.94;5062233;28;19968;-80
2022/08/27 04:02:10;;;;;;;;;;;;;;;18.64;67.49;101089.31;5058805;28;20007;-80
2022/08/27 04:04:35;;;;;;;;;;;;;;;18.57;67.58;101092.34;5065315;28;19932;-80
2022/08/27 04:07:01;;;;;;;;;;;;;;;18.62;67.53;101095.59;5062734;28;19930;-80
2022/08/27 04:09:26;;;;;;;;;;;;;;;18.61;67.14;101092.09;5047586;28;19952;-80
2022/08/27 04:11:52;;;;;;;;;;;;;;;18.58;66.98;101099.28;5067813;28;19963;-80
2022/08/27 04:14:18;;;;;;;;;;;;;;;18.56;66.68;101102.00;5071368;28;20437;-80
2022/08/27 04:16:43;;;;;;;;;;;;;;;18.40;66.62;101106.25;5071654;28;19931;-80
2022/08/27 04:19:08;;;;;;;;;;;;;;;18.47;66.65;101096.31;5068788;28;19931;-80
2022/08/27 04:21:34;;;;;;;;;;;;;;;18.51;66.51;101105.78;5072241;28;20302;-80
2022/08/27 04:24:00;;;;;;;;;;;;;;;18.55;66.41;101105.53;5066776;28;19924;-80
2022/08/27 04:26:25;;;;;;;;;;;;;;;18.51;66.56;101111.03;5067264;28;20414;-81
2022/08/27 04:28:51;;;;;;;;;;;;;;;18.50;66.74;101114.59;5064896;28;20353;-80
2022/08/27 04:31:16;;;;;;;;;;;;;;;18.51;66.16;101114.50;5068752;28;20397;-80
2022/08/27 04:33:42;;;;;;;;;;;;;;;18.49;66.45;101119.00;5067824;28;20440;-80
2022/08/27 04:36:08;;;;;;;;;;;;;;;18.47;66.32;101118.22;5069048;28;19927;-80
2022/08/27 04:38:34;;;;;;;;;;;;;;;18.54;66.31;101119.63;5070407;28;19963;-80
2022/08/27 04:41:18;;;;;;;;;;;;;;;18.50;66.29;101114.59;5067376;28;20066;-80
2022/08/27 04:43:44;;;;;;;;;;;;;;;18.55;66.29;101126.59;5065557;28;19939;-80
2022/08/27 04:46:09;;;;;;;;;;;;;;;18.54;66.50;101121.41;5069023;28;20000;-80
2022/08/27 04:48:35;;;;;;;;;;;;;;;18.56;66.16;101116.94;5068618;28;19977;-81
2022/08/27 04:51:00;;;;;;;;;;;;;;;18.62;66.08;101109.59;5066694;28;19924;-80
2022/08/27 04:53:25;;;;;;;;;;;;;;;18.58;66.51;101125.59;5068697;28;19929;-80
2022/08/27 04:55:52;;;;;;;;;;;;;;;18.50;66.99;101128.59;5067433;28;19920;-80
2022/08/27 04:58:19;;;;;;;;;;;;;;;18.56;66.81;101130.09;5063079;28;20369;-80
2022/08/27 05:00:52;;;;;;;;;;;;;;;18.52;67.24;101129.38;5065641;28;19920;-80
2022/08/27 05:03:20;;;;;;;;;;;;;;;18.54;67.69;101127.50;5067493;28;20019;-81
2022/08/27 05:05:46;;;;;;;;;;;;;;;18.57;66.87;101127.38;5068324;28;19924;-80
2022/08/27 05:08:12;;;;;;;;;;;;;;;18.59;66.99;101133.44;5066311;28;19975;-80
2022/08/27 05:10:41;;;;;;;;;;;;;;;18.57;67.27;101134.44;5065498;28;19955;-80
2022/08/27 05:13:06;;;;;;;;;;;;;;;18.52;67.40;101139.03;5067307;28;20011;-80
2022/08/27 05:15:31;;;;;;;;;;;;;;;18.52;67.47;101137.25;5070022;28;20027;-80
2022/08/27 05:17:59;;;;;;;;;;;;;;;18.50;67.96;101138.25;5070282;28;19927;-80
2022/08/27 05:20:25;;;;;;;;;;;;;;;18.45;67.89;101141.09;5068474;28;19920;-80
2022/08/27 05:22:50;;;;;;;;;;;;;;;18.55;67.31;101138.88;5065607;28;19940;-80
2022/08/27 05:25:15;;;;;;;;;;;;;;;18.38;67.73;101144.94;5061648;28;19939;-80
2022/08/27 05:27:41;;;;;;;;;;;;;;;18.47;67.32;101141.03;5061634;28;21326;-81
2022/08/27 05:30:07;;;;;;;;;;;;;;;18.45;67.35;101141.09;5063765;28;20608;-80
2022/08/27 05:32:32;;;;;;;;;;;;;;;18.46;67.77;101142.81;5063728;28;19924;-80
2022/08/27 05:34:57;;;;;;;;;;;;;;;18.48;67.63;101137.50;5066702;28;19920;-80
2022/08/27 05:37:23;;;;;;;;;;;;;;;18.39;68.46;101145.78;5064244;28;19928;-80
2022/08/27 05:39:48;;;;;;;;;;;;;;;18.33;68.50;101132.94;5064941;28;19982;-80
2022/08/27 05:42:13;;;;;;;;;;;;;;;18.38;68.52;101134.41;5063162;28;19921;-80
2022/08/27 05:44:39;;;;;;;;;;;;;;;18.49;68.11;101134.78;5070100;28;20018;-80
2022/08/27 05:47:04;;;;;;;;;;;;;;;18.52;68.06;101132.00;5068394;28;20307;-80
2022/08/27 05:49:30;;;;;;;;;;;;;;;18.43;68.08;101134.19;5068760;28;19958;-80
2022/08/27 05:51:56;;;;;;;;;;;;;;;18.40;68.57;101132.56;5066525;28;20007;-80
2022/08/27 05:54:21;;;;;;;;;;;;;;;18.45;68.15;101127.94;5063981;28;20042;-80
2022/08/27 05:56:48;;;;;;;;;;;;;;;18.46;68.62;101134.94;5064624;28;20015;-80
2022/08/27 06:01:58;;;;;;;;;;;;;;;18.46;68.92;101127.03;5071321;28;19966;-80
2022/08/27 06:04:23;;;;;;;;;;;;;;;18.46;69.18;101129.66;5070043;28;19924;-80
2022/08/27 06:06:50;;;;;;;;;;;;;;;18.47;68.95;101136.63;5069589;28;19924;-80
2022/08/27 06:09:17;;;;;;;;;;;;;;;18.48;68.13;101132.25;5064549;28;19931;-80
2022/08/27 06:11:42;;;;;;;;;;;;;;;18.44;68.50;101136.75;5066533;28;19979;-80
2022/08/27 06:14:09;;;;;;;;;;;;;;;18.44;69.09;101135.91;5065890;28;20348;-80
2022/08/27 06:16:35;;;;;;;;;;;;;;;18.35;69.21;101138.97;5065748;28;19927;-80
2022/08/27 06:19:00;;;;;;;;;;;;;;;18.32;69.52;101139.09;5059712;28;19924;-80
2022/08/27 06:21:26;;;;;;;;;;;;;;;18.40;69.27;101142.22;5073092;28;20385;-80
2022/08/27 06:23:52;;;;;;;;;;;;;;;18.38;69.05;101141.44;5063087;28;20558;-79
2022/08/27 06:26:19;;;;;;;;;;;;;;;18.31;69.00;101140.88;5064531;28;19920;-80
2022/08/27 06:28:44;;;;;;;;;;;;;;;18.40;68.59;101153.59;5062682;28;19952;-80
2022/08/27 06:31:12;;;;;;;;;;;;;;;18.38;69.03;101149.34;5065836;28;19960;-80
2022/08/27 06:33:38;;;;;;;;;;;;;;;18.40;68.56;101142.22;5064735;28;20022;-80
2022/08/27 06:36:05;;;;;;;;;;;;;;;18.42;68.94;101149.09;5066103;28;20059;-79
2022/08/27 06:38:31;;;;;;;;;;;;;;;18.38;69.21;101151.97;5065568;28;20560;-80
2022/08/27 06:40:57;;;;;;;;;;;;;;;18.47;68.89;101156.81;5060079;28;19931;-79
2022/08/27 06:43:23;;;;;;;;;;;;;;;18.40;68.82;101155.38;5065371;28;19990;-80
2022/08/27 06:45:48;;;;;;;;;;;;;;;18.27;69.31;101156.88;5064064;28;19924;-80
2022/08/27 06:48:14;;;;;;;;;;;;;;;18.29;69.05;101155.88;5059923;28;19928;-80
2022/08/27 06:50:40;;;;;;;;;;;;;;;18.27;68.53;101146.38;5064819;28;19923;-80
2022/08/27 06:53:06;;;;;;;;;;;;;;;18.26;68.81;101156.03;5061625;28;19948;-80
2022/08/27 06:55:31;;;;;;;;;;;;;;;18.18;69.22;101156.38;5065314;28;20313;-79
2022/08/27 06:57:56;;;;;;;;;;;;;;;18.22;68.98;101153.59;5063404;28;19927;-78
2022/08/27 07:00:22;;;;;;;;;;;;;;;18.28;69.05;101153.31;5062656;28;19959;-81
2022/08/27 07:02:49;;;;;;;;;;;;;;;18.18;69.05;101154.69;5064229;28;20377;-81
2022/08/27 07:05:14;;;;;;;;;;;;;;;18.15;69.04;101155.69;5066602;28;19922;-81
2022/08/27 07:07:39;;;;;;;;;;;;;;;18.20;69.27;101156.31;5060277;28;20366;-80
2022/08/27 07:10:06;;;;;;;;;;;;;;;18.24;69.34;101157.03;5057008;28;19993;-82
2022/08/27 07:12:31;;;;;;;;;;;;;;;18.11;68.91;101160.22;5061168;28;20029;-81
2022/08/27 07:14:57;;;;;;;;;;;;;;;18.11;69.18;101154.97;5063305;28;20486;-80
2022/08/27 07:17:22;;;;;;;;;;;;;;;18.11;69.29;101159.38;5063935;28;19924;-81
2022/08/27 07:19:48;;;;;;;;;;;;;;;18.15;69.10;101151.25;5063819;28;20300;-81
2022/08/27 07:22:13;;;;;;;;;;;;;;;18.08;69.14;101160.34;5064620;28;20388;-80
2022/08/27 07:24:38;;;;;;;;;;;;;;;18.10;69.27;101152.38;5061235;28;19949;-81
2022/08/27 07:27:04;;;;;;;;;;;;;;;18.16;69.20;101155.59;5064656;28;19928;-81
2022/08/27 07:29:29;;;;;;;;;;;;;;;18.23;68.81;101153.53;5065637;28;20411;-82
2022/08/27 07:31:55;;;;;;;;;;;;;;;18.24;68.93;101157.03;5066663;28;19920;-80
2022/08/27 07:34:20;;;;;;;;;;;;;;;18.15;69.39;101153.88;5070120;28;19928;-81
2022/08/27 07:36:45;;;;;;;;;;;;;;;18.14;69.56;101154.81;5063357;28;19921;-81
2022/08/27 07:39:12;;;;;;;;;;;;;;;18.14;69.46;101157.44;5064998;28;19929;-81
2022/08/27 07:44:24;;;;;;;;;;;;;;;18.16;69.48;101158.22;5067527;28;19973;-81
2022/08/27 07:46:50;;;;;;;;;;;;;;;17.97;70.03;101160.00;5071663;28;19924;-81
2022/08/27 07:49:16;;;;;;;;;;;;;;;18.06;69.70;101164.84;5068025;28;19924;-81
2022/08/27 07:51:44;;;;;;;;;;;;;;;18.16;69.69;101168.75;5066169;28;20637;-81
2022/08/27 07:54:11;;;;;;;;;;;;;;;18.18;69.28;101161.63;5061914;28;20390;-81
2022/08/27 07:56:36;;;;;;;;;;;;;;;18.26;69.21;101163.06;5060390;28;19920;-81
2022/08/27 07:59:02;;;;;;;;;;;;;;;18.10;69.54;101168.16;5059415;28;19955;-81
2022/08/27 08:01:28;;;;;;;;;;;;;;;18.06;69.63;101171.88;5060390;28;19974;-81
2022/08/27 08:03:54;;;;;;;;;;;;;;;18.12;69.52;101175.06;5060073;28;19940;-81
2022/08/27 08:06:19;;;;;;;;;;;;;;;18.13;69.65;101175.91;5062487;28;20006;-81
2022/08/27 08:08:45;;;;;;;;;;;;;;;18.21;69.36;101178.22;5063852;28;20386;-80
2022/08/27 08:11:12;;;;;;;;;;;;;;;18.28;68.80;101176.97;5063564;28;19966;-81
2022/08/27 08:13:37;;;;;;;;;;;;;;;18.22;69.12;101179.88;5065742;28;19929;-81
2022/08/27 08:16:03;;;;;;;;;;;;;;;18.15;69.04;101177.53;5063269;28;20003;-81
2022/08/27 08:18:28;;;;;;;;;;;;;;;18.25;68.82;101179.75;5063934;28;20499;-81
2022/08/27 08:21:01;;;;;;;;;;;;;;;18.01;69.92;101181.72;5061950;28;20339;-81
2022/08/27 08:23:27;;;;;;;;;;;;;;;18.15;69.60;101182.81;5064338;28;20365;-81
2022/08/27 08:25:53;;;;;;;;;;;;;;;18.14;69.64;101190.78;5060745;28;20399;-81
2022/08/27 08:28:18;;;;;;;;;;;;;;;18.13;69.50;101191.69;5065602;28;19959;-81
2022/08/27 08:30:45;;;;;;;;;;;;;;;18.11;69.58;101189.13;5064913;28;19947;-81
2022/08/27 08:33:12;;;;;;;;;;;;;;;18.26;69.25;101189.34;5060560;28;20373;-81
2022/08/27 08:35:38;;;;;;;;;;;;;;;18.16;69.41;101184.50;5063704;28;19921;-81
2022/08/27 08:38:03;;;;;;;;;;;;;;;18.20;69.64;101182.59;5064574;28;19934;-81
2022/08/27 08:40:34;;;;;;;;;;;;;;;18.27;68.72;101191.94;5062161;28;20008;-80
2022/08/27 08:43:00;;;;;;;;;;;;;;;18.14;68.82;101185.50;5061269;28;19969;-81
2022/08/27 08:45:28;;;;;;;;;;;;;;;18.23;68.98;101194.75;5064460;28;19920;-81
2022/08/27 08:48:10;;;;;;;;;;;;;;;18.10;68.91;101195.31;5064415;28;19924;-81
2022/08/27 08:50:48;;;;;;;;;;;;;;;18.23;68.27;101197.38;5067148;28;19909;-81
2022/08/27 08:53:37;;;;;;;;;;;;;;;18.15;68.85;101198.56;5063749;28;19975;-81
2022/08/27 08:56:06;;;;;;;;;;;;;;;18.24;68.11;101204.38;5062246;28;19924;-81
2022/08/27 08:58:44;;;;;;;;;;;;;;;18.26;67.81;101206.00;5066384;28;20567;-81
2022/08/27 09:01:13;;;;;;;;;;;;;;;18.15;68.79;101205.63;5065363;28;19932;-81
2022/08/27 09:03:40;;;;;;;;;;;;;;;18.28;68.50;101213.78;5070051;28;19928;-81
2022/08/27 09:06:06;;;;;;;;;;;;;;;18.06;69.02;101213.94;5066883;28;20443;-81
2022/08/27 09:08:33;;;;;;;;;;;;;;;18.10;69.24;101218.97;5069506;28;19920;-81
2022/08/27 09:11:04;;;;;;;;;;;;;;;18.18;68.86;101211.59;5065504;28;19928;-81
2022/08/27 09:13:38;;;;;;;;;;;;;;;18.22;68.92;101209.69;5069125;28;19960;-81
2022/08/27 09:16:07;;;;;;;;;;;;;;;18.24;68.59;101212.25;5071409;28;19931;-81
2022/08/27 09:18:35;;;;;;;;;;;;;;;18.14;69.43;101209.19;5070147;28;19966;-81
2022/08/27 09:21:06;;;;;;;;;;;;;;;18.11;69.11;101215.44;5069606;28;19963;-81
2022/08/27 09:23:31;;;;;;;;;;;;;;;18.16;69.21;101210.81;5068160;28;19943;-81
2022/08/27 09:25:57;;;;;;;;;;;;;;;18.02;69.77;101210.59;5062773;28;20384;-81
2022/08/27 09:31:11;;;;;;;;;;;;;;;18.22;69.75;101219.34;5066608;28;19931;-81
2022/08/27 09:33:36;;;;;;;;;;;;;;;18.15;69.26;101219.59;5067166;28;19997;-81
2022/08/27 09:36:03;;;;;;;;;;;;;;;18.03;69.73;101221.97;5066750;28;20467;-81
2022/08/27 09:38:30;;;;;;;;;;;;;;;18.16;68.91;101215.22;5069586;28;19920;-81
2022/08/27 09:40:59;;;;;;;;;;;;;;;18.05;69.58;101218.34;5062202;28;19943;-81
2022/08/27 09:43:27;;;;;;;;;;;;;;;18.17;69.46;101219.56;5066477;28;19920;-81
2022/08/27 09:46:13;;;;;;;;;;;;;;;18.25;69.17;101220.06;5067583;28;19920;-81
2022/08/27 09:48:39;;;;;;;;;;;;;;;18.01;70.28;101222.00;5067741;28;19932;-81
2022/08/27 09:51:09;;;;;;;;;;;;;;;18.11;70.74;101225.94;5068910;28;19928;-81
2022/08/27 09:53:37;;;;;;;;;;;;;;;18.11;70.53;101232.97;5067286;28;19931;-81
2022/08/27 09:56:06;;;;;;;;;;;;;;;18.20;70.16;101236.97;5062987;28;20077;-81
2022/08/27 09:58:43;;;;;;;;;;;;;;;18.23;70.68;101237.69;5058506;28;20384;-81
2022/08/27 10:01:16;;;;;;;;;;;;;;;18.13;70.88;101239.88;5065413;28;20046;-81
2022/08/27 10:03:42;;;;;;;;;;;;;;;18.21;70.63;101233.44;5064362;28;19934;-81
2022/08/27 10:06:08;;;;;;;;;;;;;;;18.18;70.90;101234.44;5066579;28;20003;-81
2022/08/27 10:08:47;;;;;;;;;;;;;;;18.14;70.35;101228.44;5066377;28;20305;-81
2022/08/27 10:11:18;;;;;;;;;;;;;;;18.14;70.88;101235.47;5061030;28;19932;-81
2022/08/27 10:13:43;;;;;;;;;;;;;;;18.13;70.47;101233.75;5067041;28;19983;-81
2022/08/27 10:16:09;;;;;;;;;;;;;;;18.26;70.58;101234.06;5066307;28;20394;-81
2022/08/27 10:18:40;;;;;;;;;;;;;;;18.23;70.22;101237.69;5070112;28;19928;-81
2022/08/27 10:21:12;;;;;;;;;;;;;;;18.27;70.15;101230.53;5066858;28;19924;-81
2022/08/27 10:23:40;;;;;;;;;;;;;;;18.21;70.51;101234.28;5064603;28;19927;-81
2022/08/27 10:26:11;;;;;;;;;;;;;;;18.20;70.71;101236.97;5064688;28;19925;-80
2022/08/27 10:28:37;;;;;;;;;;;;;;;18.20;70.80;101244.84;5064162;28;19955;-81
2022/08/27 10:31:17;;;;;;;;;;;;;;;18.23;70.62;101232.44;5064556;28;19971;-81
2022/08/27 10:33:52;;;;;;;;;;;;;;;18.28;70.70;101240.09;5064393;28;19928;-81
2022/08/27 10:36:24;;;;;;;;;;;;;;;18.27;71.67;101233.16;5063413;28;19925;-81
2022/08/27 10:38:55;;;;;;;;;;;;;;;18.31;70.29;101237.31;5078038;28;19987;-80
2022/08/27 10:41:20;;;;;;;;;;;;;;;18.42;70.09;101232.47;5061191;28;19925;-81
2022/08/27 10:43:45;;;;;;;;;;;;;;;18.32;70.26;101224.13;5066493;28;19920;-81
2022/08/27 10:46:30;;;;;;;;;;;;;;;18.33;70.53;101232.88;5060283;28;19925;-81
2022/08/27 10:49:13;;;;;;;;;;;;;;;18.36;70.73;101230.94;5077185;28;19921;-81
2022/08/27 10:51:45;;;;;;;;;;;;;;;18.32;70.20;101216.22;5065466;28;19950;-81
2022/08/27 10:54:26;;;;;;;;;;;;;;;18.42;71.07;101227.19;5063681;28;20011;-80
2022/08/27 10:57:10;;;;;;;;;;;;;;;18.52;71.60;101225.84;5063592;28;19924;-80
2022/08/27 10:59:52;;;;;;;;;;;;;;;18.51;71.89;101229.44;5065048;28;20007;-81
2022/08/27 11:02:26;;;;;;;;;;;;;;;18.47;71.33;101235.75;5064286;28;19931;-81
2022/08/27 11:05:05;;;;;;;;;;;;;;;18.56;70.28;101225.66;5064911;28;19975;-82
2022/08/27 11:07:36;;;;;;;;;;;;;;;18.57;70.13;101232.59;5065559;28;19929;-81
2022/08/27 11:10:04;;;;;;;;;;;;;;;18.64;70.93;101236.66;5065353;28;19956;-81
2022/08/27 11:12:33;;;;;;;;;;;;;;;18.56;69.79;101225.66;5070040;28;19925;-81
2022/08/27 11:15:02;;;;;;;;;;;;;;;18.52;69.56;101239.88;5071073;28;19943;-80
2022/08/27 11:17:34;;;;;;;;;;;;;;;18.57;69.33;101235.25;5064804;28;19967;-81
2022/08/27 11:20:03;;;;;;;;;;;;;;;18.56;69.26;101228.28;5067121;28;20351;-81
2022/08/27 11:22:29;;;;;;;;;;;;;;;18.68;69.36;101229.50;5066557;28;19999;-81
2022/08/27 11:25:05;;;;;;;;;;;;;;;18.69;69.03;101225.91;5067362;28;20037;-81
2022/08/27 11:27:32;;;;;;;;;;;;;;;18.74;69.16;101216.03;5062325;28;19928;-80
2022/08/27 11:30:01;;;;;;;;;;;;;;;18.81;67.95;101217.44;5065476;28;19920;-81
2022/08/27 11:32:32;;;;;;;;;;;;;;;18.76;67.57;101214.19;5065268;28;20002;-81
2022/08/27 11:35:02;;;;;;;;;;;;;;;18.84;67.03;101219.91;5064678;28;20400;-81
2022/08/27 11:37:37;;;;;;;;;;;;;;;18.81;67.06;101222.69;5064230;28;20004;-81
2022/08/27 11:40:21;;;;;;;;;;;;;;;18.81;67.15;101221.88;5060719;28;19932;-81
2022/08/27 11:42:56;;;;;;;;;;;;;;;18.60;67.64;101224.56;5065686;28;19924;-81
2022/08/27 11:45:33;;;;;;;;;;;;;;;18.73;67.18;101224.84;5068313;28;19924;-81
2022/08/27 11:48:00;;;;;;;;;;;;;;;18.73;66.75;101224.84;5061610;28;19921;-81
2022/08/27 11:50:26;;;;;;;;;;;;;;;18.62;66.88;101221.88;5063134;28;19916;-81
2022/08/27 11:52:54;;;;;;;;;;;;;;;18.70;65.98;101223.22;5071357;28;19961;-81
2022/08/27 11:55:19;;;;;;;;;;;;;;;18.77;65.69;101222.94;5070012;28;20400;-80
2022/08/27 11:57:45;;;;;;;;;;;;;;;18.74;65.75;101220.44;5060383;28;19924;-81
2022/08/27 12:00:14;;;;;;;;;;;;;;;18.78;65.32;101219.38;5065477;28;20443;-81
2022/08/27 12:02:39;;;;;;;;;;;;;;;18.77;65.34;101222.94;5068038;28;19942;-80
2022/08/27 12:05:25;;;;;;;;;;;;;;;18.72;65.41;101222.31;5073631;28;19921;-81
2022/08/27 12:07:52;;;;;;;;;;;;;;;18.73;65.00;101216.09;5064669;28;19928;-81
2022/08/27 12:10:37;;;;;;;;;;;;;;;18.68;65.28;101217.19;5076871;28;19975;-81
2022/08/27 12:13:11;;;;;;;;;;;;;;;18.75;65.01;101224.78;5062314;28;19932;-81
2022/08/27 12:15:42;;;;;;;;;;;;;;;18.79;64.68;101218.44;5066175;28;19969;-81
2022/08/27 12:18:40;;;;;;;;;;;;;;;18.77;64.98;101222.94;5065406;28;20332;-81
2022/08/27 12:21:13;;;;;;;;;;;;;;;18.70;65.19;101225.84;5064331;28;19928;-81
2022/08/27 12:23:39;;;;;;;;;;;;;;;18.78;64.74;101228.09;5065121;28;19923;-81
2022/08/27 12:26:23;;;;;;;;;;;;;;;18.81;64.31;101229.78;5060204;28;20256;-81
2022/08/27 12:28:48;;;;;;;;;;;;;;;18.85;64.56;101232.16;5061605;28;19932;-81
2022/08/27 12:31:21;;;;;;;;;;;;;;;18.86;64.33;101227.75;5069697;28;19928;-81
2022/08/27 12:33:52;;;;;;;;;;;;;;;18.80;63.89;101228.91;5069780;28;19951;-81
2022/08/27 12:36:24;;;;;;;;;;;;;;;18.82;64.17;101227.06;5068466;28;19932;-81
2022/08/27 12:38:52;;;;;;;;;;;;;;;18.80;64.52;101234.19;5064471;28;19924;-80
2022/08/27 12:41:25;;;;;;;;;;;;;;;18.82;64.11;101229.69;5066050;28;19921;-81
2022/08/27 12:44:00;;;;;;;;;;;;;;;18.73;64.18;101222.22;5068706;28;20395;-81
2022/08/27 12:46:27;;;;;;;;;;;;;;;18.84;63.94;101216.47;5066935;28;19921;-81
2022/08/27 12:48:58;;;;;;;;;;;;;;;18.78;64.08;101216.75;5071648;28;19924;-81